sensor_id;sensor_type;location;lat;lon;timestamp;P1;durP1;ratioP1;P2;durP2;ratioP2
43580;SDS011;29175;51.030;4.606;2022-07-10T00:01:09;8.38;;;2.97;;
43580;SDS011;29175;51.030;4.606;2022-07-10T00:03:35;9.50;;;2.67;;
43580;SDS011;29175;51.030;4.606;2022-07-10T00:06:04;6.00;;;2.60;;
43580;SDS011;29175;51.030;4.606;2022-07-10T00:08:33;10.38;;;3.05;;
43580;SDS011;29175;51.030;4.606;2022-07-10T00:10:59;7.43;;;3.10;;
43580;SDS011;29175;51.030;4.606;2022-07-10T00:13:28;9.18;;;2.80;;
43580;SDS011;29175;51.030;4.606;2022-07-10T00:15:54;9.00;;;2.75;;
43580;SDS011;29175;51.030;4.606;2022-07-10T00:18:20;5.35;;;3.00;;
43580;SDS011;29175;51.030;4.606;2022-07-10T00:20:47;10.52;;;3.50;;
43580;SDS011;29175;51.030;4.606;2022-07-10T00:23:17;7.20;;;2.67;;
43580;SDS011;29175;51.030;4.606;2022-07-10T00:25:42;9.23;;;3.17;;
43580;SDS011;29175;51.030;4.606;2022-07-10T00:28:09;11.95;;;2.67;;
43580;SDS011;29175;51.030;4.606;2022-07-10T00:30:37;4.78;;;2.85;;
43580;SDS011;29175;51.030;4.606;2022-07-10T00:33:04;7.40;;;2.67;;
43580;SDS011;29175;51.030;4.606;2022-07-10T00:35:33;7.38;;;3.08;;
43580;SDS011;29175;51.030;4.606;2022-07-10T00:37:59;7.07;;;3.22;;
43580;SDS011;29175;51.030;4.606;2022-07-10T00:40:25;7.70;;;3.10;;
43580;SDS011;29175;51.030;4.606;2022-07-10T00:42:51;13.07;;;3.65;;
43580;SDS011;29175;51.030;4.606;2022-07-10T00:45:18;6.65;;;2.47;;
43580;SDS011;29175;51.030;4.606;2022-07-10T00:47:46;6.43;;;3.08;;
43580;SDS011;29175;51.030;4.606;2022-07-10T00:50:13;8.52;;;3.25;;
43580;SDS011;29175;51.030;4.606;2022-07-10T00:52:41;10.85;;;3.33;;
43580;SDS011;29175;51.030;4.606;2022-07-10T00:55:13;11.90;;;2.95;;
43580;SDS011;29175;51.030;4.606;2022-07-10T00:57:42;9.38;;;3.03;;
43580;SDS011;29175;51.030;4.606;2022-07-10T01:00:08;5.95;;;3.03;;
43580;SDS011;29175;51.030;4.606;2022-07-10T01:02:37;8.05;;;3.10;;
43580;SDS011;29175;51.030;4.606;2022-07-10T01:05:07;4.40;;;3.00;;
43580;SDS011;29175;51.030;4.606;2022-07-10T01:07:33;7.20;;;3.20;;
43580;SDS011;29175;51.030;4.606;2022-07-10T01:09:59;5.85;;;2.78;;
43580;SDS011;29175;51.030;4.606;2022-07-10T01:12:29;5.75;;;3.05;;
43580;SDS011;29175;51.030;4.606;2022-07-10T01:14:58;7.60;;;3.58;;
43580;SDS011;29175;51.030;4.606;2022-07-10T01:17:27;7.93;;;3.10;;
43580;SDS011;29175;51.030;4.606;2022-07-10T01:22:26;8.63;;;3.08;;
43580;SDS011;29175;51.030;4.606;2022-07-10T01:24:59;6.20;;;3.15;;
43580;SDS011;29175;51.030;4.606;2022-07-10T01:27:27;9.10;;;3.28;;
43580;SDS011;29175;51.030;4.606;2022-07-10T01:29:55;7.10;;;3.60;;
43580;SDS011;29175;51.030;4.606;2022-07-10T01:32:24;5.72;;;3.13;;
43580;SDS011;29175;51.030;4.606;2022-07-10T01:34:53;5.63;;;3.22;;
43580;SDS011;29175;51.030;4.606;2022-07-10T01:37:24;7.93;;;2.95;;
43580;SDS011;29175;51.030;4.606;2022-07-10T01:39:51;9.35;;;3.15;;
43580;SDS011;29175;51.030;4.606;2022-07-10T01:42:17;4.97;;;2.85;;
43580;SDS011;29175;51.030;4.606;2022-07-10T01:44:45;6.05;;;2.83;;
43580;SDS011;29175;51.030;4.606;2022-07-10T01:47:14;6.22;;;3.13;;
43580;SDS011;29175;51.030;4.606;2022-07-10T01:49:40;12.90;;;3.38;;
43580;SDS011;29175;51.030;4.606;2022-07-10T01:52:09;7.05;;;2.83;;
43580;SDS011;29175;51.030;4.606;2022-07-10T01:57:04;9.05;;;3.45;;
43580;SDS011;29175;51.030;4.606;2022-07-10T01:59:32;9.50;;;3.63;;
43580;SDS011;29175;51.030;4.606;2022-07-10T02:01:57;5.95;;;3.10;;
43580;SDS011;29175;51.030;4.606;2022-07-10T02:04:26;7.03;;;3.10;;
43580;SDS011;29175;51.030;4.606;2022-07-10T02:07:07;7.85;;;3.78;;
43580;SDS011;29175;51.030;4.606;2022-07-10T02:12:09;9.70;;;3.38;;
43580;SDS011;29175;51.030;4.606;2022-07-10T02:14:37;5.53;;;3.08;;
43580;SDS011;29175;51.030;4.606;2022-07-10T02:17:03;7.53;;;3.30;;
43580;SDS011;29175;51.030;4.606;2022-07-10T02:19:33;7.90;;;3.30;;
43580;SDS011;29175;51.030;4.606;2022-07-10T02:24:30;7.60;;;3.15;;
43580;SDS011;29175;51.030;4.606;2022-07-10T02:26:58;6.03;;;3.25;;
43580;SDS011;29175;51.030;4.606;2022-07-10T02:29:24;6.85;;;3.55;;
43580;SDS011;29175;51.030;4.606;2022-07-10T02:31:50;6.38;;;2.83;;
43580;SDS011;29175;51.030;4.606;2022-07-10T02:34:19;15.10;;;3.20;;
43580;SDS011;29175;51.030;4.606;2022-07-10T02:36:45;5.68;;;3.30;;
43580;SDS011;29175;51.030;4.606;2022-07-10T02:39:13;7.30;;;3.10;;
43580;SDS011;29175;51.030;4.606;2022-07-10T02:41:39;6.40;;;3.22;;
43580;SDS011;29175;51.030;4.606;2022-07-10T02:44:06;9.05;;;3.35;;
43580;SDS011;29175;51.030;4.606;2022-07-10T02:46:33;10.98;;;3.30;;
43580;SDS011;29175;51.030;4.606;2022-07-10T02:49:06;5.53;;;3.22;;
43580;SDS011;29175;51.030;4.606;2022-07-10T02:51:38;10.20;;;3.75;;
43580;SDS011;29175;51.030;4.606;2022-07-10T02:54:07;7.75;;;3.03;;
43580;SDS011;29175;51.030;4.606;2022-07-10T02:56:33;9.38;;;3.70;;
43580;SDS011;29175;51.030;4.606;2022-07-10T02:59:04;8.15;;;3.30;;
43580;SDS011;29175;51.030;4.606;2022-07-10T03:04:00;5.05;;;3.17;;
43580;SDS011;29175;51.030;4.606;2022-07-10T03:06:32;5.60;;;3.20;;
43580;SDS011;29175;51.030;4.606;2022-07-10T03:09:00;7.50;;;3.20;;
43580;SDS011;29175;51.030;4.606;2022-07-10T03:11:25;5.78;;;2.80;;
43580;SDS011;29175;51.030;4.606;2022-07-10T03:16:31;8.10;;;3.20;;
43580;SDS011;29175;51.030;4.606;2022-07-10T03:18:58;6.07;;;3.22;;
43580;SDS011;29175;51.030;4.606;2022-07-10T03:21:26;8.27;;;2.92;;
43580;SDS011;29175;51.030;4.606;2022-07-10T03:23:54;7.57;;;3.00;;
43580;SDS011;29175;51.030;4.606;2022-07-10T03:26:23;9.90;;;3.25;;
43580;SDS011;29175;51.030;4.606;2022-07-10T03:28:50;7.05;;;3.08;;
43580;SDS011;29175;51.030;4.606;2022-07-10T03:31:19;9.35;;;3.45;;
43580;SDS011;29175;51.030;4.606;2022-07-10T03:36:16;7.20;;;3.35;;
43580;SDS011;29175;51.030;4.606;2022-07-10T03:38:48;8.85;;;3.00;;
43580;SDS011;29175;51.030;4.606;2022-07-10T03:41:15;5.40;;;2.97;;
43580;SDS011;29175;51.030;4.606;2022-07-10T03:43:46;6.78;;;2.97;;
43580;SDS011;29175;51.030;4.606;2022-07-10T03:46:13;5.13;;;3.00;;
43580;SDS011;29175;51.030;4.606;2022-07-10T03:48:39;4.72;;;2.97;;
43580;SDS011;29175;51.030;4.606;2022-07-10T03:51:09;12.32;;;3.20;;
43580;SDS011;29175;51.030;4.606;2022-07-10T03:53:35;7.80;;;2.70;;
43580;SDS011;29175;51.030;4.606;2022-07-10T03:56:01;6.57;;;3.30;;
43580;SDS011;29175;51.030;4.606;2022-07-10T03:58:27;4.78;;;2.88;;
43580;SDS011;29175;51.030;4.606;2022-07-10T04:00:54;5.47;;;2.80;;
43580;SDS011;29175;51.030;4.606;2022-07-10T04:03:20;6.60;;;2.88;;
43580;SDS011;29175;51.030;4.606;2022-07-10T04:05:52;6.28;;;3.20;;
43580;SDS011;29175;51.030;4.606;2022-07-10T04:08:17;5.05;;;2.78;;
43580;SDS011;29175;51.030;4.606;2022-07-10T04:10:45;4.85;;;3.22;;
43580;SDS011;29175;51.030;4.606;2022-07-10T04:13:12;8.35;;;3.08;;
43580;SDS011;29175;51.030;4.606;2022-07-10T04:15:39;9.38;;;3.20;;
43580;SDS011;29175;51.030;4.606;2022-07-10T04:18:08;7.13;;;3.15;;
43580;SDS011;29175;51.030;4.606;2022-07-10T04:20:37;7.32;;;3.10;;
43580;SDS011;29175;51.030;4.606;2022-07-10T04:23:03;9.52;;;2.75;;
43580;SDS011;29175;51.030;4.606;2022-07-10T04:25:29;7.13;;;3.15;;
43580;SDS011;29175;51.030;4.606;2022-07-10T04:27:56;8.57;;;3.50;;
43580;SDS011;29175;51.030;4.606;2022-07-10T04:30:22;7.45;;;3.08;;
43580;SDS011;29175;51.030;4.606;2022-07-10T04:32:49;5.63;;;2.80;;
43580;SDS011;29175;51.030;4.606;2022-07-10T04:37:43;7.95;;;3.03;;
43580;SDS011;29175;51.030;4.606;2022-07-10T04:40:15;8.40;;;3.03;;
43580;SDS011;29175;51.030;4.606;2022-07-10T04:42:41;7.90;;;3.47;;
43580;SDS011;29175;51.030;4.606;2022-07-10T04:45:06;4.50;;;2.70;;
43580;SDS011;29175;51.030;4.606;2022-07-10T04:47:35;6.80;;;2.70;;
43580;SDS011;29175;51.030;4.606;2022-07-10T04:50:04;11.07;;;3.05;;
43580;SDS011;29175;51.030;4.606;2022-07-10T04:52:32;9.32;;;3.40;;
43580;SDS011;29175;51.030;4.606;2022-07-10T04:55:00;8.35;;;3.55;;
43580;SDS011;29175;51.030;4.606;2022-07-10T04:57:29;6.82;;;2.92;;
43580;SDS011;29175;51.030;4.606;2022-07-10T04:59:55;4.55;;;2.63;;
43580;SDS011;29175;51.030;4.606;2022-07-10T05:02:23;7.30;;;3.20;;
43580;SDS011;29175;51.030;4.606;2022-07-10T05:04:51;5.00;;;2.50;;
43580;SDS011;29175;51.030;4.606;2022-07-10T05:07:18;7.68;;;2.63;;
43580;SDS011;29175;51.030;4.606;2022-07-10T05:09:46;11.30;;;2.78;;
43580;SDS011;29175;51.030;4.606;2022-07-10T05:12:11;4.43;;;2.65;;
43580;SDS011;29175;51.030;4.606;2022-07-10T05:14:39;6.97;;;3.13;;
43580;SDS011;29175;51.030;4.606;2022-07-10T05:19:35;7.40;;;3.05;;
43580;SDS011;29175;51.030;4.606;2022-07-10T05:22:07;8.68;;;3.22;;
43580;SDS011;29175;51.030;4.606;2022-07-10T05:24:36;6.20;;;3.20;;
43580;SDS011;29175;51.030;4.606;2022-07-10T05:27:04;3.95;;;2.55;;
43580;SDS011;29175;51.030;4.606;2022-07-10T05:29:31;8.90;;;3.00;;
43580;SDS011;29175;51.030;4.606;2022-07-10T05:31:57;6.50;;;2.38;;
43580;SDS011;29175;51.030;4.606;2022-07-10T05:34:25;10.80;;;3.17;;
43580;SDS011;29175;51.030;4.606;2022-07-10T05:36:51;6.90;;;2.53;;
43580;SDS011;29175;51.030;4.606;2022-07-10T05:44:19;5.00;;;2.85;;
43580;SDS011;29175;51.030;4.606;2022-07-10T05:46:46;6.57;;;3.05;;
43580;SDS011;29175;51.030;4.606;2022-07-10T05:49:14;5.80;;;3.03;;
43580;SDS011;29175;51.030;4.606;2022-07-10T05:51:42;9.32;;;3.45;;
43580;SDS011;29175;51.030;4.606;2022-07-10T05:54:08;7.55;;;3.00;;
43580;SDS011;29175;51.030;4.606;2022-07-10T05:56:35;11.73;;;3.63;;
43580;SDS011;29175;51.030;4.606;2022-07-10T05:59:02;6.05;;;3.05;;
43580;SDS011;29175;51.030;4.606;2022-07-10T06:01:28;7.82;;;2.92;;
43580;SDS011;29175;51.030;4.606;2022-07-10T06:03:56;9.82;;;3.22;;
43580;SDS011;29175;51.030;4.606;2022-07-10T06:06:22;6.25;;;3.03;;
43580;SDS011;29175;51.030;4.606;2022-07-10T06:09:01;6.70;;;2.95;;
43580;SDS011;29175;51.030;4.606;2022-07-10T06:11:29;8.73;;;2.70;;
43580;SDS011;29175;51.030;4.606;2022-07-10T06:13:57;5.28;;;2.80;;
43580;SDS011;29175;51.030;4.606;2022-07-10T06:16:23;6.97;;;3.17;;
43580;SDS011;29175;51.030;4.606;2022-07-10T06:18:49;7.57;;;2.88;;
43580;SDS011;29175;51.030;4.606;2022-07-10T06:21:18;8.38;;;3.30;;
43580;SDS011;29175;51.030;4.606;2022-07-10T06:23:47;7.75;;;2.60;;
43580;SDS011;29175;51.030;4.606;2022-07-10T06:26:14;6.93;;;3.28;;
43580;SDS011;29175;51.030;4.606;2022-07-10T06:28:40;7.22;;;3.35;;
43580;SDS011;29175;51.030;4.606;2022-07-10T06:31:12;7.35;;;3.00;;
43580;SDS011;29175;51.030;4.606;2022-07-10T06:33:41;7.43;;;3.00;;
43580;SDS011;29175;51.030;4.606;2022-07-10T06:36:08;11.32;;;3.63;;
43580;SDS011;29175;51.030;4.606;2022-07-10T06:38:34;8.55;;;3.58;;
43580;SDS011;29175;51.030;4.606;2022-07-10T06:41:00;7.35;;;3.33;;
43580;SDS011;29175;51.030;4.606;2022-07-10T06:43:29;9.55;;;2.88;;
43580;SDS011;29175;51.030;4.606;2022-07-10T06:46:00;8.23;;;2.95;;
43580;SDS011;29175;51.030;4.606;2022-07-10T06:48:27;8.48;;;2.83;;
43580;SDS011;29175;51.030;4.606;2022-07-10T06:50:54;9.80;;;3.28;;
43580;SDS011;29175;51.030;4.606;2022-07-10T06:53:21;7.63;;;3.22;;
43580;SDS011;29175;51.030;4.606;2022-07-10T06:55:53;7.75;;;3.17;;
43580;SDS011;29175;51.030;4.606;2022-07-10T07:00:48;8.52;;;3.10;;
43580;SDS011;29175;51.030;4.606;2022-07-10T07:03:16;12.38;;;2.90;;
43580;SDS011;29175;51.030;4.606;2022-07-10T07:05:45;8.35;;;2.88;;
43580;SDS011;29175;51.030;4.606;2022-07-10T07:08:11;6.85;;;2.78;;
43580;SDS011;29175;51.030;4.606;2022-07-10T07:10:38;7.13;;;2.67;;
43580;SDS011;29175;51.030;4.606;2022-07-10T07:13:05;10.68;;;3.03;;
43580;SDS011;29175;51.030;4.606;2022-07-10T07:15:31;9.02;;;2.75;;
43580;SDS011;29175;51.030;4.606;2022-07-10T07:18:04;9.23;;;2.90;;
43580;SDS011;29175;51.030;4.606;2022-07-10T07:20:34;6.70;;;2.60;;
43580;SDS011;29175;51.030;4.606;2022-07-10T07:23:22;7.85;;;2.50;;
43580;SDS011;29175;51.030;4.606;2022-07-10T07:25:49;9.60;;;2.28;;
43580;SDS011;29175;51.030;4.606;2022-07-10T07:28:16;8.55;;;2.22;;
43580;SDS011;29175;51.030;4.606;2022-07-10T07:30:43;5.90;;;2.42;;
43580;SDS011;29175;51.030;4.606;2022-07-10T07:33:10;5.25;;;2.40;;
43580;SDS011;29175;51.030;4.606;2022-07-10T07:35:36;5.28;;;2.05;;
43580;SDS011;29175;51.030;4.606;2022-07-10T07:38:03;4.15;;;1.95;;
43580;SDS011;29175;51.030;4.606;2022-07-10T07:40:30;5.85;;;2.20;;
43580;SDS011;29175;51.030;4.606;2022-07-10T07:45:26;4.18;;;1.88;;
43580;SDS011;29175;51.030;4.606;2022-07-10T07:50:30;5.45;;;1.85;;
43580;SDS011;29175;51.030;4.606;2022-07-10T07:53:05;8.50;;;1.48;;
43580;SDS011;29175;51.030;4.606;2022-07-10T07:55:32;6.03;;;1.80;;
43580;SDS011;29175;51.030;4.606;2022-07-10T07:58:02;5.63;;;1.60;;
43580;SDS011;29175;51.030;4.606;2022-07-10T08:00:30;5.80;;;1.45;;
43580;SDS011;29175;51.030;4.606;2022-07-10T08:02:57;10.07;;;1.20;;
43580;SDS011;29175;51.030;4.606;2022-07-10T08:07:53;5.75;;;1.60;;
43580;SDS011;29175;51.030;4.606;2022-07-10T08:10:22;3.93;;;1.70;;
43580;SDS011;29175;51.030;4.606;2022-07-10T08:12:50;3.55;;;1.45;;
43580;SDS011;29175;51.030;4.606;2022-07-10T08:15:19;3.58;;;1.30;;
43580;SDS011;29175;51.030;4.606;2022-07-10T08:17:48;3.45;;;1.40;;
43580;SDS011;29175;51.030;4.606;2022-07-10T08:22:44;3.92;;;1.50;;
43580;SDS011;29175;51.030;4.606;2022-07-10T08:25:10;4.68;;;1.30;;
43580;SDS011;29175;51.030;4.606;2022-07-10T08:27:38;3.55;;;1.27;;
43580;SDS011;29175;51.030;4.606;2022-07-10T08:30:04;5.82;;;1.35;;
43580;SDS011;29175;51.030;4.606;2022-07-10T08:32:31;4.07;;;1.27;;
43580;SDS011;29175;51.030;4.606;2022-07-10T08:37:28;4.43;;;1.00;;
43580;SDS011;29175;51.030;4.606;2022-07-10T08:39:54;6.93;;;1.70;;
43580;SDS011;29175;51.030;4.606;2022-07-10T08:42:20;5.75;;;1.42;;
43580;SDS011;29175;51.030;4.606;2022-07-10T08:44:48;6.82;;;1.20;;
43580;SDS011;29175;51.030;4.606;2022-07-10T08:49:51;5.65;;;1.45;;
43580;SDS011;29175;51.030;4.606;2022-07-10T08:54:53;5.50;;;1.40;;
43580;SDS011;29175;51.030;4.606;2022-07-10T08:57:22;3.05;;;1.27;;
43580;SDS011;29175;51.030;4.606;2022-07-10T08:59:49;4.78;;;1.55;;
43580;SDS011;29175;51.030;4.606;2022-07-10T09:02:17;2.78;;;1.20;;
43580;SDS011;29175;51.030;4.606;2022-07-10T09:04:42;5.40;;;1.40;;
43580;SDS011;29175;51.030;4.606;2022-07-10T09:07:08;4.28;;;1.60;;
43580;SDS011;29175;51.030;4.606;2022-07-10T09:12:21;9.07;;;1.33;;
43580;SDS011;29175;51.030;4.606;2022-07-10T09:14:48;3.95;;;1.30;;
43580;SDS011;29175;51.030;4.606;2022-07-10T09:17:16;4.35;;;1.30;;
43580;SDS011;29175;51.030;4.606;2022-07-10T09:19:46;4.95;;;1.30;;
43580;SDS011;29175;51.030;4.606;2022-07-10T09:22:12;4.82;;;1.40;;
43580;SDS011;29175;51.030;4.606;2022-07-10T09:24:40;2.42;;;1.10;;
43580;SDS011;29175;51.030;4.606;2022-07-10T09:27:08;4.28;;;1.42;;
43580;SDS011;29175;51.030;4.606;2022-07-10T09:29:54;2.00;;;1.05;;
43580;SDS011;29175;51.030;4.606;2022-07-10T09:32:24;4.85;;;1.42;;
43580;SDS011;29175;51.030;4.606;2022-07-10T09:34:51;4.65;;;1.45;;
43580;SDS011;29175;51.030;4.606;2022-07-10T09:37:38;3.28;;;1.40;;
43580;SDS011;29175;51.030;4.606;2022-07-10T09:40:06;6.20;;;1.45;;
43580;SDS011;29175;51.030;4.606;2022-07-10T09:42:40;2.50;;;1.25;;
43580;SDS011;29175;51.030;4.606;2022-07-10T09:47:52;4.65;;;1.30;;
43580;SDS011;29175;51.030;4.606;2022-07-10T09:50:29;5.43;;;1.75;;
43580;SDS011;29175;51.030;4.606;2022-07-10T09:53:01;5.78;;;1.65;;
43580;SDS011;29175;51.030;4.606;2022-07-10T09:55:30;6.57;;;1.85;;
43580;SDS011;29175;51.030;4.606;2022-07-10T09:58:06;6.10;;;1.70;;
43580;SDS011;29175;51.030;4.606;2022-07-10T10:00:37;6.47;;;1.70;;
43580;SDS011;29175;51.030;4.606;2022-07-10T10:03:06;5.63;;;1.60;;
43580;SDS011;29175;51.030;4.606;2022-07-10T10:08:24;10.68;;;1.63;;
43580;SDS011;29175;51.030;4.606;2022-07-10T10:13:24;6.03;;;1.90;;
43580;SDS011;29175;51.030;4.606;2022-07-10T10:15:54;7.90;;;1.85;;
43580;SDS011;29175;51.030;4.606;2022-07-10T10:18:23;4.45;;;1.67;;
43580;SDS011;29175;51.030;4.606;2022-07-10T10:20:54;7.60;;;1.70;;
43580;SDS011;29175;51.030;4.606;2022-07-10T10:23:23;6.80;;;1.85;;
43580;SDS011;29175;51.030;4.606;2022-07-10T10:25:53;5.28;;;1.33;;
43580;SDS011;29175;51.030;4.606;2022-07-10T10:30:50;7.88;;;2.00;;
43580;SDS011;29175;51.030;4.606;2022-07-10T10:36:03;9.27;;;2.40;;
43580;SDS011;29175;51.030;4.606;2022-07-10T10:46:34;6.88;;;2.05;;
43580;SDS011;29175;51.030;4.606;2022-07-10T10:49:05;5.60;;;2.00;;
43580;SDS011;29175;51.030;4.606;2022-07-10T10:52:19;6.07;;;2.00;;
43580;SDS011;29175;51.030;4.606;2022-07-10T10:54:30;7.82;;;2.17;;
43580;SDS011;29175;51.030;4.606;2022-07-10T10:57:17;5.57;;;2.47;;
43580;SDS011;29175;51.030;4.606;2022-07-10T11:02:31;6.68;;;2.55;;
43580;SDS011;29175;51.030;4.606;2022-07-10T11:08:02;9.88;;;2.78;;
43580;SDS011;29175;51.030;4.606;2022-07-10T11:13:05;5.25;;;2.35;;
43580;SDS011;29175;51.030;4.606;2022-07-10T11:18:21;8.05;;;2.28;;
43580;SDS011;29175;51.030;4.606;2022-07-10T11:20:54;5.53;;;2.53;;
43580;SDS011;29175;51.030;4.606;2022-07-10T11:29:17;8.65;;;2.13;;
43580;SDS011;29175;51.030;4.606;2022-07-10T11:31:51;6.57;;;2.55;;
43580;SDS011;29175;51.030;4.606;2022-07-10T11:34:18;3.47;;;2.00;;
43580;SDS011;29175;51.030;4.606;2022-07-10T11:36:46;5.38;;;1.75;;
43580;SDS011;29175;51.030;4.606;2022-07-10T11:39:12;2.80;;;1.75;;
43580;SDS011;29175;51.030;4.606;2022-07-10T11:41:45;7.07;;;2.10;;
43580;SDS011;29175;51.030;4.606;2022-07-10T11:44:15;8.48;;;2.00;;
43580;SDS011;29175;51.030;4.606;2022-07-10T11:46:42;6.78;;;1.95;;
43580;SDS011;29175;51.030;4.606;2022-07-10T11:49:14;5.97;;;1.88;;
43580;SDS011;29175;51.030;4.606;2022-07-10T11:51:41;5.75;;;2.00;;
43580;SDS011;29175;51.030;4.606;2022-07-10T11:54:10;6.53;;;1.90;;
43580;SDS011;29175;51.030;4.606;2022-07-10T11:56:38;7.45;;;2.10;;
43580;SDS011;29175;51.030;4.606;2022-07-10T11:59:09;3.42;;;1.70;;
43580;SDS011;29175;51.030;4.606;2022-07-10T12:04:14;6.35;;;2.58;;
43580;SDS011;29175;51.030;4.606;2022-07-10T12:06:47;6.53;;;2.10;;
43580;SDS011;29175;51.030;4.606;2022-07-10T12:11:43;6.40;;;2.00;;
43580;SDS011;29175;51.030;4.606;2022-07-10T12:16:52;5.53;;;2.03;;
43580;SDS011;29175;51.030;4.606;2022-07-10T12:19:23;6.22;;;1.90;;
43580;SDS011;29175;51.030;4.606;2022-07-10T12:21:51;5.55;;;2.22;;
43580;SDS011;29175;51.030;4.606;2022-07-10T12:24:18;5.65;;;2.17;;
43580;SDS011;29175;51.030;4.606;2022-07-10T12:26:46;6.45;;;1.95;;
43580;SDS011;29175;51.030;4.606;2022-07-10T12:29:23;7.07;;;2.00;;
43580;SDS011;29175;51.030;4.606;2022-07-10T12:31:51;6.45;;;1.90;;
43580;SDS011;29175;51.030;4.606;2022-07-10T12:34:36;4.43;;;1.90;;
43580;SDS011;29175;51.030;4.606;2022-07-10T12:37:08;5.30;;;1.38;;
43580;SDS011;29175;51.030;4.606;2022-07-10T12:39:38;6.68;;;2.08;;
43580;SDS011;29175;51.030;4.606;2022-07-10T12:44:52;8.00;;;1.98;;
43580;SDS011;29175;51.030;4.606;2022-07-10T12:47:19;5.43;;;1.80;;
43580;SDS011;29175;51.030;4.606;2022-07-10T12:52:30;3.92;;;1.63;;
43580;SDS011;29175;51.030;4.606;2022-07-10T12:55:13;4.00;;;1.88;;
43580;SDS011;29175;51.030;4.606;2022-07-10T12:57:48;4.80;;;1.77;;
43580;SDS011;29175;51.030;4.606;2022-07-10T13:00:22;4.93;;;1.45;;
43580;SDS011;29175;51.030;4.606;2022-07-10T13:02:57;6.40;;;2.30;;
43580;SDS011;29175;51.030;4.606;2022-07-10T13:05:30;9.15;;;2.10;;
43580;SDS011;29175;51.030;4.606;2022-07-10T13:10:49;4.13;;;1.50;;
43580;SDS011;29175;51.030;4.606;2022-07-10T13:13:17;4.53;;;1.67;;
43580;SDS011;29175;51.030;4.606;2022-07-10T13:15:43;2.58;;;1.48;;
43580;SDS011;29175;51.030;4.606;2022-07-10T13:18:19;3.30;;;1.75;;
43580;SDS011;29175;51.030;4.606;2022-07-10T13:20:51;7.03;;;1.70;;
43580;SDS011;29175;51.030;4.606;2022-07-10T13:23:22;8.20;;;1.98;;
43580;SDS011;29175;51.030;4.606;2022-07-10T13:25:51;4.70;;;1.88;;
43580;SDS011;29175;51.030;4.606;2022-07-10T13:28:17;5.90;;;1.70;;
43580;SDS011;29175;51.030;4.606;2022-07-10T13:30:47;7.18;;;1.52;;
43580;SDS011;29175;51.030;4.606;2022-07-10T13:33:14;2.10;;;1.50;;
43580;SDS011;29175;51.030;4.606;2022-07-10T13:35:40;5.95;;;1.63;;
43580;SDS011;29175;51.030;4.606;2022-07-10T13:38:09;6.07;;;1.73;;
43580;SDS011;29175;51.030;4.606;2022-07-10T13:40:38;3.50;;;1.33;;
43580;SDS011;29175;51.030;4.606;2022-07-10T13:43:05;4.93;;;1.40;;
43580;SDS011;29175;51.030;4.606;2022-07-10T13:45:31;4.15;;;1.58;;
43580;SDS011;29175;51.030;4.606;2022-07-10T13:48:08;3.47;;;1.50;;
43580;SDS011;29175;51.030;4.606;2022-07-10T13:50:39;3.92;;;1.60;;
43580;SDS011;29175;51.030;4.606;2022-07-10T13:53:06;7.00;;;1.98;;
43580;SDS011;29175;51.030;4.606;2022-07-10T13:55:34;4.53;;;1.40;;
43580;SDS011;29175;51.030;4.606;2022-07-10T13:58:01;5.53;;;1.85;;
43580;SDS011;29175;51.030;4.606;2022-07-10T14:00:27;5.78;;;1.85;;
43580;SDS011;29175;51.030;4.606;2022-07-10T14:02:53;6.25;;;1.73;;
43580;SDS011;29175;51.030;4.606;2022-07-10T14:05:21;4.32;;;1.58;;
43580;SDS011;29175;51.030;4.606;2022-07-10T14:07:47;6.25;;;1.60;;
43580;SDS011;29175;51.030;4.606;2022-07-10T14:10:14;4.20;;;1.40;;
43580;SDS011;29175;51.030;4.606;2022-07-10T14:12:41;5.28;;;1.42;;
43580;SDS011;29175;51.030;4.606;2022-07-10T14:15:07;5.28;;;1.30;;
43580;SDS011;29175;51.030;4.606;2022-07-10T14:17:34;3.25;;;1.20;;
43580;SDS011;29175;51.030;4.606;2022-07-10T14:20:00;3.65;;;1.20;;
43580;SDS011;29175;51.030;4.606;2022-07-10T14:22:26;6.30;;;1.58;;
43580;SDS011;29175;51.030;4.606;2022-07-10T14:24:55;9.38;;;1.58;;
43580;SDS011;29175;51.030;4.606;2022-07-10T14:27:22;3.63;;;1.50;;
43580;SDS011;29175;51.030;4.606;2022-07-10T14:29:52;6.30;;;1.48;;
43580;SDS011;29175;51.030;4.606;2022-07-10T14:32:18;3.55;;;1.40;;
43580;SDS011;29175;51.030;4.606;2022-07-10T14:34:45;5.22;;;1.20;;
43580;SDS011;29175;51.030;4.606;2022-07-10T14:37:10;4.43;;;1.70;;
43580;SDS011;29175;51.030;4.606;2022-07-10T14:39:36;8.80;;;1.48;;
43580;SDS011;29175;51.030;4.606;2022-07-10T14:42:03;5.70;;;1.80;;
43580;SDS011;29175;51.030;4.606;2022-07-10T14:44:33;5.20;;;1.65;;
43580;SDS011;29175;51.030;4.606;2022-07-10T14:46:59;5.70;;;1.40;;
43580;SDS011;29175;51.030;4.606;2022-07-10T14:49:25;3.47;;;1.52;;
43580;SDS011;29175;51.030;4.606;2022-07-10T14:51:53;3.28;;;1.10;;
43580;SDS011;29175;51.030;4.606;2022-07-10T14:54:21;2.80;;;1.40;;
43580;SDS011;29175;51.030;4.606;2022-07-10T14:56:48;3.75;;;1.55;;
43580;SDS011;29175;51.030;4.606;2022-07-10T14:59:14;5.35;;;1.50;;
43580;SDS011;29175;51.030;4.606;2022-07-10T15:01:40;5.30;;;1.05;;
43580;SDS011;29175;51.030;4.606;2022-07-10T15:04:07;5.35;;;1.73;;
43580;SDS011;29175;51.030;4.606;2022-07-10T15:06:35;4.10;;;1.30;;
43580;SDS011;29175;51.030;4.606;2022-07-10T15:09:03;4.03;;;1.52;;
43580;SDS011;29175;51.030;4.606;2022-07-10T15:11:29;2.78;;;1.55;;
43580;SDS011;29175;51.030;4.606;2022-07-10T15:13:54;4.82;;;1.40;;
43580;SDS011;29175;51.030;4.606;2022-07-10T15:16:28;6.03;;;1.52;;
43580;SDS011;29175;51.030;4.606;2022-07-10T15:18:55;2.65;;;1.27;;
43580;SDS011;29175;51.030;4.606;2022-07-10T15:21:22;5.20;;;1.30;;
43580;SDS011;29175;51.030;4.606;2022-07-10T15:23:49;5.85;;;1.58;;
43580;SDS011;29175;51.030;4.606;2022-07-10T15:26:16;4.20;;;1.50;;
43580;SDS011;29175;51.030;4.606;2022-07-10T15:28:43;3.88;;;1.77;;
43580;SDS011;29175;51.030;4.606;2022-07-10T15:31:10;6.78;;;1.85;;
43580;SDS011;29175;51.030;4.606;2022-07-10T15:33:36;4.05;;;1.52;;
43580;SDS011;29175;51.030;4.606;2022-07-10T15:36:03;5.38;;;1.73;;
43580;SDS011;29175;51.030;4.606;2022-07-10T15:38:31;3.53;;;1.27;;
43580;SDS011;29175;51.030;4.606;2022-07-10T15:40:58;3.80;;;1.60;;
43580;SDS011;29175;51.030;4.606;2022-07-10T15:43:25;4.03;;;1.70;;
43580;SDS011;29175;51.030;4.606;2022-07-10T15:45:52;3.80;;;1.63;;
43580;SDS011;29175;51.030;4.606;2022-07-10T15:48:19;4.75;;;1.50;;
43580;SDS011;29175;51.030;4.606;2022-07-10T15:50:47;6.18;;;1.55;;
43580;SDS011;29175;51.030;4.606;2022-07-10T15:53:15;4.38;;;1.38;;
43580;SDS011;29175;51.030;4.606;2022-07-10T15:55:41;2.30;;;1.60;;
43580;SDS011;29175;51.030;4.606;2022-07-10T15:58:07;5.68;;;1.75;;
43580;SDS011;29175;51.030;4.606;2022-07-10T16:00:33;4.50;;;1.77;;
43580;SDS011;29175;51.030;4.606;2022-07-10T16:02:59;5.03;;;1.70;;
43580;SDS011;29175;51.030;4.606;2022-07-10T16:05:25;6.32;;;1.45;;
43580;SDS011;29175;51.030;4.606;2022-07-10T16:07:51;2.90;;;1.38;;
43580;SDS011;29175;51.030;4.606;2022-07-10T16:10:18;3.25;;;1.67;;
43580;SDS011;29175;51.030;4.606;2022-07-10T16:12:45;3.38;;;1.50;;
43580;SDS011;29175;51.030;4.606;2022-07-10T16:15:12;2.75;;;1.15;;
43580;SDS011;29175;51.030;4.606;2022-07-10T16:17:37;3.25;;;1.50;;
43580;SDS011;29175;51.030;4.606;2022-07-10T16:20:03;6.00;;;1.33;;
43580;SDS011;29175;51.030;4.606;2022-07-10T16:22:31;4.68;;;1.42;;
43580;SDS011;29175;51.030;4.606;2022-07-10T16:24:59;3.50;;;1.60;;
43580;SDS011;29175;51.030;4.606;2022-07-10T16:27:44;4.45;;;1.40;;
43580;SDS011;29175;51.030;4.606;2022-07-10T16:30:10;2.88;;;1.40;;
43580;SDS011;29175;51.030;4.606;2022-07-10T16:32:35;4.28;;;1.88;;
43580;SDS011;29175;51.030;4.606;2022-07-10T16:35:01;3.67;;;1.42;;
43580;SDS011;29175;51.030;4.606;2022-07-10T16:37:28;1.90;;;1.25;;
43580;SDS011;29175;51.030;4.606;2022-07-10T16:39:55;2.47;;;1.20;;